sensor_id;sensor_type;location;lat;lon;timestamp;temperature;humidity
11540;DHT22;5826;54.756;9.192;2023-05-10T00:00:57;16.40;90.10
11540;DHT22;5826;54.756;9.192;2023-05-10T00:03:23;16.40;90.10
11540;DHT22;5826;54.756;9.192;2023-05-10T00:05:48;16.40;90.20
11540;DHT22;5826;54.756;9.192;2023-05-10T00:08:14;16.40;90.20
11540;DHT22;5826;54.756;9.192;2023-05-10T00:10:39;16.40;90.20
11540;DHT22;5826;54.756;9.192;2023-05-10T00:13:06;16.40;90.10
11540;DHT22;5826;54.756;9.192;2023-05-10T00:15:31;16.40;90.20
11540;DHT22;5826;54.756;9.192;2023-05-10T00:17:57;16.40;90.30
11540;DHT22;5826;54.756;9.192;2023-05-10T00:20:22;16.40;90.30
11540;DHT22;5826;54.756;9.192;2023-05-10T00:22:48;16.40;90.30
11540;DHT22;5826;54.756;9.192;2023-05-10T00:25:13;16.40;90.40
11540;DHT22;5826;54.756;9.192;2023-05-10T00:27:39;16.40;90.30
11540;DHT22;5826;54.756;9.192;2023-05-10T00:30:05;16.40;90.40
11540;DHT22;5826;54.756;9.192;2023-05-10T00:32:31;16.40;90.40
11540;DHT22;5826;54.756;9.192;2023-05-10T00:34:57;16.40;90.40
11540;DHT22;5826;54.756;9.192;2023-05-10T00:37:22;16.40;90.50
11540;DHT22;5826;54.756;9.192;2023-05-10T00:39:47;16.40;90.50
11540;DHT22;5826;54.756;9.192;2023-05-10T00:42:13;16.40;90.50
11540;DHT22;5826;54.756;9.192;2023-05-10T00:44:38;16.40;90.60
11540;DHT22;5826;54.756;9.192;2023-05-10T00:47:04;16.30;90.60
11540;DHT22;5826;54.756;9.192;2023-05-10T00:49:30;16.30;90.60
11540;DHT22;5826;54.756;9.192;2023-05-10T00:51:56;16.30;90.60
11540;DHT22;5826;54.756;9.192;2023-05-10T00:54:22;16.30;90.60
11540;DHT22;5826;54.756;9.192;2023-05-10T00:56:47;16.30;90.60
11540;DHT22;5826;54.756;9.192;2023-05-10T00:59:15;16.30;90.70
11540;DHT22;5826;54.756;9.192;2023-05-10T01:01:45;16.30;90.70
11540;DHT22;5826;54.756;9.192;2023-05-10T01:04:12;16.20;90.70
11540;DHT22;5826;54.756;9.192;2023-05-10T01:06:41;16.20;90.80
11540;DHT22;5826;54.756;9.192;2023-05-10T01:09:07;16.20;90.80
11540;DHT22;5826;54.756;9.192;2023-05-10T01:11:37;16.20;90.80
11540;DHT22;5826;54.756;9.192;2023-05-10T01:14:03;16.20;90.80
11540;DHT22;5826;54.756;9.192;2023-05-10T01:16:32;16.20;90.80
11540;DHT22;5826;54.756;9.192;2023-05-10T01:18:58;16.20;90.90
11540;DHT22;5826;54.756;9.192;2023-05-10T01:21:48;16.20;90.90
11540;DHT22;5826;54.756;9.192;2023-05-10T01:24:35;16.20;90.80
11540;DHT22;5826;54.756;9.192;2023-05-10T01:27:25;16.10;90.90
11540;DHT22;5826;54.756;9.192;2023-05-10T01:38:00;16.00;91.10
11540;DHT22;5826;54.756;9.192;2023-05-10T01:40:32;16.00;90.90
11540;DHT22;5826;54.756;9.192;2023-05-10T01:43:04;16.00;90.90
11540;DHT22;5826;54.756;9.192;2023-05-10T01:45:59;16.00;90.90
11540;DHT22;5826;54.756;9.192;2023-05-10T01:48:30;16.00;90.80
11540;DHT22;5826;54.756;9.192;2023-05-10T01:50:56;16.00;90.90
11540;DHT22;5826;54.756;9.192;2023-05-10T01:53:22;15.90;90.90
11540;DHT22;5826;54.756;9.192;2023-05-10T01:55:51;15.90;90.90
11540;DHT22;5826;54.756;9.192;2023-05-10T01:58:24;15.90;90.90
11540;DHT22;5826;54.756;9.192;2023-05-10T02:00:52;15.90;90.90
11540;DHT22;5826;54.756;9.192;2023-05-10T02:03:22;15.90;91.00
11540;DHT22;5826;54.756;9.192;2023-05-10T02:05:49;15.90;91.00
11540;DHT22;5826;54.756;9.192;2023-05-10T02:08:16;15.80;91.00
11540;DHT22;5826;54.756;9.192;2023-05-10T02:10:43;15.80;91.00
11540;DHT22;5826;54.756;9.192;2023-05-10T02:13:10;15.80;91.00
11540;DHT22;5826;54.756;9.192;2023-05-10T02:15:37;15.80;91.10
11540;DHT22;5826;54.756;9.192;2023-05-10T02:18:04;15.80;91.10
11540;DHT22;5826;54.756;9.192;2023-05-10T02:20:31;15.80;91.10
11540;DHT22;5826;54.756;9.192;2023-05-10T02:22:57;15.70;91.10
11540;DHT22;5826;54.756;9.192;2023-05-10T02:25:24;15.70;91.20
11540;DHT22;5826;54.756;9.192;2023-05-10T02:27:51;15.70;91.40
11540;DHT22;5826;54.756;9.192;2023-05-10T02:30:19;15.70;91.20
11540;DHT22;5826;54.756;9.192;2023-05-10T02:32:45;15.60;91.20
11540;DHT22;5826;54.756;9.192;2023-05-10T02:35:12;15.60;91.20
11540;DHT22;5826;54.756;9.192;2023-05-10T02:37:38;15.60;91.20
11540;DHT22;5826;54.756;9.192;2023-05-10T02:40:06;15.60;91.30
11540;DHT22;5826;54.756;9.192;2023-05-10T02:42:35;15.60;91.30
11540;DHT22;5826;54.756;9.192;2023-05-10T02:45:03;15.60;91.30
11540;DHT22;5826;54.756;9.192;2023-05-10T02:47:30;15.50;91.20
11540;DHT22;5826;54.756;9.192;2023-05-10T02:49:56;15.50;91.30
11540;DHT22;5826;54.756;9.192;2023-05-10T02:52:25;15.50;91.30
11540;DHT22;5826;54.756;9.192;2023-05-10T02:54:55;15.50;91.30
11540;DHT22;5826;54.756;9.192;2023-05-10T02:57:28;15.50;91.30
11540;DHT22;5826;54.756;9.192;2023-05-10T02:59:54;15.50;91.60
11540;DHT22;5826;54.756;9.192;2023-05-10T03:02:20;15.50;91.40
11540;DHT22;5826;54.756;9.192;2023-05-10T03:04:46;15.40;91.30
11540;DHT22;5826;54.756;9.192;2023-05-10T03:07:12;15.40;91.40
11540;DHT22;5826;54.756;9.192;2023-05-10T03:09:38;15.40;91.40
11540;DHT22;5826;54.756;9.192;2023-05-10T03:12:10;15.40;91.40
11540;DHT22;5826;54.756;9.192;2023-05-10T03:15:03;15.30;91.40
11540;DHT22;5826;54.756;9.192;2023-05-10T03:17:45;15.30;91.30
11540;DHT22;5826;54.756;9.192;2023-05-10T03:20:25;15.30;91.40
11540;DHT22;5826;54.756;9.192;2023-05-10T03:22:55;15.30;91.50
11540;DHT22;5826;54.756;9.192;2023-05-10T03:25:24;15.30;91.50
11540;DHT22;5826;54.756;9.192;2023-05-10T03:27:50;15.30;91.40
11540;DHT22;5826;54.756;9.192;2023-05-10T03:30:17;15.30;91.40
11540;DHT22;5826;54.756;9.192;2023-05-10T03:32:43;15.30;91.40
11540;DHT22;5826;54.756;9.192;2023-05-10T03:35:10;15.30;91.50
11540;DHT22;5826;54.756;9.192;2023-05-10T03:37:36;15.20;91.60
11540;DHT22;5826;54.756;9.192;2023-05-10T03:40:03;15.20;91.60
11540;DHT22;5826;54.756;9.192;2023-05-10T03:42:28;15.20;91.70
11540;DHT22;5826;54.756;9.192;2023-05-10T03:44:54;15.10;91.70
11540;DHT22;5826;54.756;9.192;2023-05-10T03:47:19;15.10;91.80
11540;DHT22;5826;54.756;9.192;2023-05-10T03:49:45;15.10;91.90
11540;DHT22;5826;54.756;9.192;2023-05-10T03:52:11;15.10;91.90
11540;DHT22;5826;54.756;9.192;2023-05-10T03:54:36;15.10;91.90
11540;DHT22;5826;54.756;9.192;2023-05-10T03:57:01;15.00;91.90
11540;DHT22;5826;54.756;9.192;2023-05-10T03:59:28;15.00;91.90
11540;DHT22;5826;54.756;9.192;2023-05-10T04:01:53;15.00;91.90
11540;DHT22;5826;54.756;9.192;2023-05-10T04:04:19;15.00;92.00
11540;DHT22;5826;54.756;9.192;2023-05-10T04:06:46;15.00;92.00
11540;DHT22;5826;54.756;9.192;2023-05-10T04:09:11;15.00;92.00
11540;DHT22;5826;54.756;9.192;2023-05-10T04:11:37;15.00;92.00
11540;DHT22;5826;54.756;9.192;2023-05-10T04:14:02;14.90;92.00
11540;DHT22;5826;54.756;9.192;2023-05-10T04:16:28;14.90;92.00
11540;DHT22;5826;54.756;9.192;2023-05-10T04:18:53;14.90;92.10
11540;DHT22;5826;54.756;9.192;2023-05-10T04:21:19;14.90;92.10
11540;DHT22;5826;54.756;9.192;2023-05-10T04:23:44;14.90;92.10
11540;DHT22;5826;54.756;9.192;2023-05-10T04:26:10;14.90;92.00
11540;DHT22;5826;54.756;9.192;2023-05-10T04:28:35;14.80;92.10
11540;DHT22;5826;54.756;9.192;2023-05-10T04:31:06;14.90;92.20
11540;DHT22;5826;54.756;9.192;2023-05-10T04:33:31;14.80;92.20
11540;DHT22;5826;54.756;9.192;2023-05-10T04:35:57;14.90;92.30
11540;DHT22;5826;54.756;9.192;2023-05-10T04:38:23;14.90;92.30
11540;DHT22;5826;54.756;9.192;2023-05-10T04:40:48;14.90;92.30
11540;DHT22;5826;54.756;9.192;2023-05-10T04:43:14;14.90;92.40
11540;DHT22;5826;54.756;9.192;2023-05-10T04:45:39;14.90;92.30
11540;DHT22;5826;54.756;9.192;2023-05-10T04:48:05;14.90;92.40
11540;DHT22;5826;54.756;9.192;2023-05-10T04:50:30;14.90;92.40
11540;DHT22;5826;54.756;9.192;2023-05-10T04:52:56;14.90;92.40
11540;DHT22;5826;54.756;9.192;2023-05-10T04:55:22;14.90;92.50
11540;DHT22;5826;54.756;9.192;2023-05-10T04:57:47;14.90;92.40
11540;DHT22;5826;54.756;9.192;2023-05-10T05:00:13;14.90;92.40
11540;DHT22;5826;54.756;9.192;2023-05-10T05:02:42;15.00;92.40
11540;DHT22;5826;54.756;9.192;2023-05-10T05:05:09;15.00;92.40
11540;DHT22;5826;54.756;9.192;2023-05-10T05:07:34;15.00;92.50
11540;DHT22;5826;54.756;9.192;2023-05-10T05:10:00;15.00;92.40
11540;DHT22;5826;54.756;9.192;2023-05-10T05:12:25;15.10;92.30
11540;DHT22;5826;54.756;9.192;2023-05-10T05:14:50;15.10;92.40
11540;DHT22;5826;54.756;9.192;2023-05-10T05:17:16;15.10;92.30
11540;DHT22;5826;54.756;9.192;2023-05-10T05:19:41;15.10;92.20
11540;DHT22;5826;54.756;9.192;2023-05-10T05:22:07;15.20;92.30
11540;DHT22;5826;54.756;9.192;2023-05-10T05:24:36;15.20;92.20
11540;DHT22;5826;54.756;9.192;2023-05-10T05:27:05;15.30;92.20
11540;DHT22;5826;54.756;9.192;2023-05-10T05:29:31;15.30;92.30
11540;DHT22;5826;54.756;9.192;2023-05-10T05:31:57;15.40;92.20
11540;DHT22;5826;54.756;9.192;2023-05-10T05:34:22;15.40;92.20
11540;DHT22;5826;54.756;9.192;2023-05-10T05:36:48;15.50;92.20
11540;DHT22;5826;54.756;9.192;2023-05-10T05:39:13;15.60;92.10
11540;DHT22;5826;54.756;9.192;2023-05-10T05:41:39;15.60;92.20
11540;DHT22;5826;54.756;9.192;2023-05-10T05:44:04;15.60;92.10
11540;DHT22;5826;54.756;9.192;2023-05-10T05:46:30;15.70;92.10
11540;DHT22;5826;54.756;9.192;2023-05-10T05:48:56;15.70;92.00
11540;DHT22;5826;54.756;9.192;2023-05-10T05:51:21;15.70;92.00
11540;DHT22;5826;54.756;9.192;2023-05-10T05:53:47;15.70;92.10
11540;DHT22;5826;54.756;9.192;2023-05-10T05:56:12;15.80;92.10
11540;DHT22;5826;54.756;9.192;2023-05-10T05:58:38;15.80;92.10
11540;DHT22;5826;54.756;9.192;2023-05-10T06:01:03;15.80;92.00
11540;DHT22;5826;54.756;9.192;2023-05-10T06:03:29;15.80;92.20
11540;DHT22;5826;54.756;9.192;2023-05-10T06:05:54;15.70;92.10
11540;DHT22;5826;54.756;9.192;2023-05-10T06:08:20;15.80;92.20
11540;DHT22;5826;54.756;9.192;2023-05-10T06:10:46;15.70;92.20
11540;DHT22;5826;54.756;9.192;2023-05-10T06:13:11;15.70;92.20
11540;DHT22;5826;54.756;9.192;2023-05-10T06:15:38;15.70;92.30
11540;DHT22;5826;54.756;9.192;2023-05-10T06:18:03;15.70;92.20
11540;DHT22;5826;54.756;9.192;2023-05-10T06:20:29;15.80;92.40
11540;DHT22;5826;54.756;9.192;2023-05-10T06:22:56;15.80;92.30
11540;DHT22;5826;54.756;9.192;2023-05-10T06:25:22;15.80;92.30
11540;DHT22;5826;54.756;9.192;2023-05-10T06:27:48;15.80;92.10
11540;DHT22;5826;54.756;9.192;2023-05-10T06:30:14;15.80;92.20
11540;DHT22;5826;54.756;9.192;2023-05-10T06:32:40;15.90;92.30
11540;DHT22;5826;54.756;9.192;2023-05-10T06:35:06;15.90;92.30
11540;DHT22;5826;54.756;9.192;2023-05-10T06:37:32;16.00;92.40
11540;DHT22;5826;54.756;9.192;2023-05-10T06:39:57;16.00;92.30
11540;DHT22;5826;54.756;9.192;2023-05-10T06:42:26;16.10;92.20
11540;DHT22;5826;54.756;9.192;2023-05-10T06:44:54;16.10;92.20
11540;DHT22;5826;54.756;9.192;2023-05-10T06:47:19;16.20;92.10
11540;DHT22;5826;54.756;9.192;2023-05-10T06:49:44;16.20;92.20
11540;DHT22;5826;54.756;9.192;2023-05-10T06:52:10;16.30;92.40
11540;DHT22;5826;54.756;9.192;2023-05-10T06:54:36;16.40;92.20
11540;DHT22;5826;54.756;9.192;2023-05-10T06:57:01;16.40;92.20
11540;DHT22;5826;54.756;9.192;2023-05-10T06:59:28;16.50;92.10
11540;DHT22;5826;54.756;9.192;2023-05-10T07:01:54;16.50;92.10
11540;DHT22;5826;54.756;9.192;2023-05-10T07:04:19;16.60;92.10
11540;DHT22;5826;54.756;9.192;2023-05-10T07:06:44;16.60;92.10
11540;DHT22;5826;54.756;9.192;2023-05-10T07:09:11;16.70;92.00
11540;DHT22;5826;54.756;9.192;2023-05-10T07:11:37;16.80;92.00
11540;DHT22;5826;54.756;9.192;2023-05-10T07:14:02;17.00;91.90
11540;DHT22;5826;54.756;9.192;2023-05-10T07:16:28;17.00;91.80
11540;DHT22;5826;54.756;9.192;2023-05-10T07:18:54;17.00;91.80
11540;DHT22;5826;54.756;9.192;2023-05-10T07:21:19;17.10;91.80
11540;DHT22;5826;54.756;9.192;2023-05-10T07:23:45;17.10;91.80
11540;DHT22;5826;54.756;9.192;2023-05-10T07:26:10;17.20;91.70
11540;DHT22;5826;54.756;9.192;2023-05-10T07:28:36;17.30;91.70
11540;DHT22;5826;54.756;9.192;2023-05-10T07:31:02;17.40;91.60
11540;DHT22;5826;54.756;9.192;2023-05-10T07:33:28;17.40;91.50
11540;DHT22;5826;54.756;9.192;2023-05-10T07:35:53;17.40;91.80
11540;DHT22;5826;54.756;9.192;2023-05-10T07:38:19;17.50;91.60
11540;DHT22;5826;54.756;9.192;2023-05-10T07:40:44;17.60;91.70
11540;DHT22;5826;54.756;9.192;2023-05-10T07:43:10;17.60;91.50
11540;DHT22;5826;54.756;9.192;2023-05-10T07:45:35;17.70;91.60
11540;DHT22;5826;54.756;9.192;2023-05-10T07:48:01;17.80;91.60
11540;DHT22;5826;54.756;9.192;2023-05-10T07:50:26;17.90;91.70
11540;DHT22;5826;54.756;9.192;2023-05-10T07:52:52;18.00;91.50
11540;DHT22;5826;54.756;9.192;2023-05-10T07:55:18;18.00;91.40
11540;DHT22;5826;54.756;9.192;2023-05-10T07:57:44;18.10;91.50
11540;DHT22;5826;54.756;9.192;2023-05-10T08:00:12;18.10;91.60
11540;DHT22;5826;54.756;9.192;2023-05-10T08:02:38;18.20;91.70
11540;DHT22;5826;54.756;9.192;2023-05-10T08:05:04;18.30;91.50
11540;DHT22;5826;54.756;9.192;2023-05-10T08:07:30;18.40;91.50
11540;DHT22;5826;54.756;9.192;2023-05-10T08:09:56;18.50;91.50
11540;DHT22;5826;54.756;9.192;2023-05-10T08:12:21;18.50;91.40
11540;DHT22;5826;54.756;9.192;2023-05-10T08:14:47;18.50;91.40
11540;DHT22;5826;54.756;9.192;2023-05-10T08:17:12;18.50;91.40
11540;DHT22;5826;54.756;9.192;2023-05-10T08:19:38;18.60;91.50
11540;DHT22;5826;54.756;9.192;2023-05-10T08:22:03;18.70;91.40
11540;DHT22;5826;54.756;9.192;2023-05-10T08:24:29;18.70;91.30
11540;DHT22;5826;54.756;9.192;2023-05-10T08:26:54;18.70;91.40
11540;DHT22;5826;54.756;9.192;2023-05-10T08:29:20;18.70;91.50
11540;DHT22;5826;54.756;9.192;2023-05-10T08:31:45;18.70;91.50
11540;DHT22;5826;54.756;9.192;2023-05-10T08:34:11;18.70;91.60
11540;DHT22;5826;54.756;9.192;2023-05-10T08:36:36;18.70;91.60
11540;DHT22;5826;54.756;9.192;2023-05-10T08:39:02;18.80;91.70
11540;DHT22;5826;54.756;9.192;2023-05-10T08:41:28;18.80;91.70
11540;DHT22;5826;54.756;9.192;2023-05-10T08:43:55;18.80;91.60
11540;DHT22;5826;54.756;9.192;2023-05-10T08:46:22;18.90;91.60
11540;DHT22;5826;54.756;9.192;2023-05-10T08:48:49;18.90;91.60
11540;DHT22;5826;54.756;9.192;2023-05-10T08:51:19;18.90;91.50
11540;DHT22;5826;54.756;9.192;2023-05-10T08:53:47;18.90;91.40
11540;DHT22;5826;54.756;9.192;2023-05-10T08:56:13;18.90;91.50
11540;DHT22;5826;54.756;9.192;2023-05-10T08:58:38;18.90;91.60
11540;DHT22;5826;54.756;9.192;2023-05-10T09:01:05;19.00;91.60
11540;DHT22;5826;54.756;9.192;2023-05-10T09:03:31;19.10;91.70
11540;DHT22;5826;54.756;9.192;2023-05-10T09:05:57;19.30;91.60
11540;DHT22;5826;54.756;9.192;2023-05-10T09:08:25;19.30;91.50
11540;DHT22;5826;54.756;9.192;2023-05-10T09:10:51;19.40;91.40
11540;DHT22;5826;54.756;9.192;2023-05-10T09:13:18;19.40;91.50
11540;DHT22;5826;54.756;9.192;2023-05-10T09:15:45;19.40;91.60
11540;DHT22;5826;54.756;9.192;2023-05-10T09:18:11;19.40;91.50
11540;DHT22;5826;54.756;9.192;2023-05-10T09:20:36;19.50;91.60
11540;DHT22;5826;54.756;9.192;2023-05-10T09:23:02;19.60;91.50
11540;DHT22;5826;54.756;9.192;2023-05-10T09:25:27;19.60;91.50
11540;DHT22;5826;54.756;9.192;2023-05-10T09:27:53;19.60;91.50
11540;DHT22;5826;54.756;9.192;2023-05-10T09:32:50;19.70;91.70
11540;DHT22;5826;54.756;9.192;2023-05-10T09:35:17;19.70;91.40
11540;DHT22;5826;54.756;9.192;2023-05-10T09:37:45;19.70;91.50
11540;DHT22;5826;54.756;9.192;2023-05-10T09:40:13;19.70;91.50
11540;DHT22;5826;54.756;9.192;2023-05-10T09:42:50;19.80;91.60
11540;DHT22;5826;54.756;9.192;2023-05-10T09:45:16;19.90;91.50
11540;DHT22;5826;54.756;9.192;2023-05-10T09:47:41;20.00;91.40
11540;DHT22;5826;54.756;9.192;2023-05-10T09:50:07;20.10;91.30
11540;DHT22;5826;54.756;9.192;2023-05-10T09:52:50;20.10;91.30
11540;DHT22;5826;54.756;9.192;2023-05-10T09:55:18;20.20;91.10
11540;DHT22;5826;54.756;9.192;2023-05-10T09:57:45;20.20;91.20
11540;DHT22;5826;54.756;9.192;2023-05-10T10:00:16;20.20;91.30
11540;DHT22;5826;54.756;9.192;2023-05-10T10:02:42;20.20;91.40
11540;DHT22;5826;54.756;9.192;2023-05-10T10:05:08;20.10;91.30
11540;DHT22;5826;54.756;9.192;2023-05-10T10:07:34;20.10;91.30
11540;DHT22;5826;54.756;9.192;2023-05-10T10:10:00;20.00;91.40
11540;DHT22;5826;54.756;9.192;2023-05-10T10:12:26;19.90;91.50
11540;DHT22;5826;54.756;9.192;2023-05-10T10:14:52;19.90;91.60
11540;DHT22;5826;54.756;9.192;2023-05-10T10:17:19;19.80;91.50
11540;DHT22;5826;54.756;9.192;2023-05-10T10:19:45;19.70;91.60
11540;DHT22;5826;54.756;9.192;2023-05-10T10:22:11;19.60;91.70
11540;DHT22;5826;54.756;9.192;2023-05-10T10:24:38;19.50;91.80
11540;DHT22;5826;54.756;9.192;2023-05-10T10:27:24;19.40;91.80
11540;DHT22;5826;54.756;9.192;2023-05-10T10:35:19;19.30;91.90
11540;DHT22;5826;54.756;9.192;2023-05-10T10:37:47;19.30;92.10
11540;DHT22;5826;54.756;9.192;2023-05-10T10:40:32;19.20;91.90
11540;DHT22;5826;54.756;9.192;2023-05-10T10:43:21;19.20;92.00
11540;DHT22;5826;54.756;9.192;2023-05-10T10:46:14;19.20;92.10
11540;DHT22;5826;54.756;9.192;2023-05-10T10:48:50;19.20;92.20
11540;DHT22;5826;54.756;9.192;2023-05-10T10:51:17;19.30;92.50
11540;DHT22;5826;54.756;9.192;2023-05-10T10:53:43;19.30;92.20
11540;DHT22;5826;54.756;9.192;2023-05-10T10:56:12;19.10;92.30
11540;DHT22;5826;54.756;9.192;2023-05-10T10:58:40;19.10;92.50
11540;DHT22;5826;54.756;9.192;2023-05-10T11:01:17;19.00;92.90
11540;DHT22;5826;54.756;9.192;2023-05-10T11:06:35;18.60;93.60
11540;DHT22;5826;54.756;9.192;2023-05-10T11:09:12;18.40;93.70
11540;DHT22;5826;54.756;9.192;2023-05-10T11:11:53;18.30;94.20
11540;DHT22;5826;54.756;9.192;2023-05-10T11:14:23;18.20;94.50
11540;DHT22;5826;54.756;9.192;2023-05-10T11:16:49;18.00;94.60
11540;DHT22;5826;54.756;9.192;2023-05-10T11:19:16;17.80;94.80
11540;DHT22;5826;54.756;9.192;2023-05-10T11:22:11;17.70;94.90
11540;DHT22;5826;54.756;9.192;2023-05-10T11:24:38;17.60;94.90
11540;DHT22;5826;54.756;9.192;2023-05-10T11:27:03;17.70;95.10
11540;DHT22;5826;54.756;9.192;2023-05-10T11:29:29;17.60;95.10
11540;DHT22;5826;54.756;9.192;2023-05-10T11:31:58;17.60;95.20
11540;DHT22;5826;54.756;9.192;2023-05-10T11:34:28;17.60;95.10
11540;DHT22;5826;54.756;9.192;2023-05-10T11:36:56;17.60;96.00
11540;DHT22;5826;54.756;9.192;2023-05-10T11:39:29;17.50;95.60
11540;DHT22;5826;54.756;9.192;2023-05-10T11:41:56;17.50;96.10
11540;DHT22;5826;54.756;9.192;2023-05-10T11:44:22;17.50;96.20
11540;DHT22;5826;54.756;9.192;2023-05-10T11:46:49;17.40;96.30
11540;DHT22;5826;54.756;9.192;2023-05-10T11:49:14;17.40;96.40
11540;DHT22;5826;54.756;9.192;2023-05-10T11:51:40;17.40;96.70
11540;DHT22;5826;54.756;9.192;2023-05-10T11:54:10;17.40;96.40
11540;DHT22;5826;54.756;9.192;2023-05-10T11:56:37;17.40;96.30
11540;DHT22;5826;54.756;9.192;2023-05-10T11:59:03;17.50;96.50
11540;DHT22;5826;54.756;9.192;2023-05-10T12:01:29;17.50;96.20
11540;DHT22;5826;54.756;9.192;2023-05-10T12:03:57;17.50;96.80
11540;DHT22;5826;54.756;9.192;2023-05-10T12:06:30;17.40;96.50
11540;DHT22;5826;54.756;9.192;2023-05-10T12:08:57;17.40;96.40
11540;DHT22;5826;54.756;9.192;2023-05-10T12:11:25;17.40;97.20
11540;DHT22;5826;54.756;9.192;2023-05-10T12:13:51;17.30;97.60
11540;DHT22;5826;54.756;9.192;2023-05-10T12:16:19;17.30;97.50
11540;DHT22;5826;54.756;9.192;2023-05-10T12:18:45;17.30;97.10
11540;DHT22;5826;54.756;9.192;2023-05-10T12:21:11;17.40;97.40
11540;DHT22;5826;54.756;9.192;2023-05-10T12:23:37;17.50;97.70
11540;DHT22;5826;54.756;9.192;2023-05-10T12:26:03;17.50;97.40
11540;DHT22;5826;54.756;9.192;2023-05-10T12:28:33;17.60;97.80
11540;DHT22;5826;54.756;9.192;2023-05-10T12:31:02;17.70;97.50
11540;DHT22;5826;54.756;9.192;2023-05-10T12:33:36;17.80;97.20
11540;DHT22;5826;54.756;9.192;2023-05-10T12:36:04;17.80;97.50
11540;DHT22;5826;54.756;9.192;2023-05-10T12:38:33;17.90;97.60
11540;DHT22;5826;54.756;9.192;2023-05-10T12:41:00;17.90;98.60
11540;DHT22;5826;54.756;9.192;2023-05-10T12:43:26;17.60;98.40
11540;DHT22;5826;54.756;9.192;2023-05-10T12:45:52;17.40;98.90
11540;DHT22;5826;54.756;9.192;2023-05-10T12:48:18;17.40;98.70
11540;DHT22;5826;54.756;9.192;2023-05-10T12:50:43;17.30;98.30
11540;DHT22;5826;54.756;9.192;2023-05-10T12:53:09;17.30;98.80
11540;DHT22;5826;54.756;9.192;2023-05-10T12:55:34;17.10;99.80
11540;DHT22;5826;54.756;9.192;2023-05-10T12:58:00;17.10;99.30
11540;DHT22;5826;54.756;9.192;2023-05-10T13:00:25;17.00;99.70
11540;DHT22;5826;54.756;9.192;2023-05-10T13:02:51;16.90;99.90
11540;DHT22;5826;54.756;9.192;2023-05-10T13:05:17;16.90;99.90
11540;DHT22;5826;54.756;9.192;2023-05-10T13:07:42;16.90;99.60
11540;DHT22;5826;54.756;9.192;2023-05-10T13:10:09;16.80;99.90
11540;DHT22;5826;54.756;9.192;2023-05-10T13:12:35;16.70;99.90
11540;DHT22;5826;54.756;9.192;2023-05-10T13:15:00;16.70;99.90
11540;DHT22;5826;54.756;9.192;2023-05-10T13:17:26;16.70;99.90
11540;DHT22;5826;54.756;9.192;2023-05-10T13:19:51;16.90;99.90
11540;DHT22;5826;54.756;9.192;2023-05-10T13:22:17;16.80;99.90
11540;DHT22;5826;54.756;9.192;2023-05-10T13:24:43;16.70;99.90
11540;DHT22;5826;54.756;9.192;2023-05-10T13:27:08;16.70;99.90
11540;DHT22;5826;54.756;9.192;2023-05-10T13:29:34;16.70;99.90
11540;DHT22;5826;54.756;9.192;2023-05-10T13:31:59;16.70;99.90
11540;DHT22;5826;54.756;9.192;2023-05-10T13:34:25;16.60;99.90
11540;DHT22;5826;54.756;9.192;2023-05-10T13:36:50;16.70;99.90
11540;DHT22;5826;54.756;9.192;2023-05-10T13:39:16;16.60;99.90
11540;DHT22;5826;54.756;9.192;2023-05-10T13:41:42;16.60;99.90
11540;DHT22;5826;54.756;9.192;2023-05-10T13:44:07;16.60;99.90
11540;DHT22;5826;54.756;9.192;2023-05-10T13:46:33;16.60;99.90
11540;DHT22;5826;54.756;9.192;2023-05-10T13:48:58;16.70;99.90
11540;DHT22;5826;54.756;9.192;2023-05-10T13:51:24;16.80;99.90
11540;DHT22;5826;54.756;9.192;2023-05-10T13:53:49;16.90;99.90
11540;DHT22;5826;54.756;9.192;2023-05-10T13:56:15;16.90;99.90
11540;DHT22;5826;54.756;9.192;2023-05-10T13:58:41;17.00;99.90
11540;DHT22;5826;54.756;9.192;2023-05-10T14:01:06;17.10;99.90
11540;DHT22;5826;54.756;9.192;2023-05-10T14:03:32;17.10;99.90
11540;DHT22;5826;54.756;9.192;2023-05-10T14:05:57;17.20;99.90
11540;DHT22;5826;54.756;9.192;2023-05-10T14:08:23;17.10;99.90
11540;DHT22;5826;54.756;9.192;2023-05-10T14:10:48;17.10;99.90
11540;DHT22;5826;54.756;9.192;2023-05-10T14:13:14;17.20;99.90
11540;DHT22;5826;54.756;9.192;2023-05-10T14:15:40;17.20;99.90
11540;DHT22;5826;54.756;9.192;2023-05-10T14:18:06;17.20;99.90
11540;DHT22;5826;54.756;9.192;2023-05-10T14:20:32;17.20;99.90
11540;DHT22;5826;54.756;9.192;2023-05-10T14:22:59;17.30;99.90
11540;DHT22;5826;54.756;9.192;2023-05-10T14:25:25;17.30;99.90
11540;DHT22;5826;54.756;9.192;2023-05-10T14:27:50;17.30;99.90
11540;DHT22;5826;54.756;9.192;2023-05-10T14:30:16;17.30;99.90
11540;DHT22;5826;54.756;9.192;2023-05-10T14:32:42;17.20;99.90
11540;DHT22;5826;54.756;9.192;2023-05-10T14:35:07;17.20;99.90
11540;DHT22;5826;54.756;9.192;2023-05-10T14:37:34;17.20;99.90
11540;DHT22;5826;54.756;9.192;2023-05-10T14:39:59;17.10;99.90
11540;DHT22;5826;54.756;9.192;2023-05-10T14:42:25;17.10;99.90
11540;DHT22;5826;54.756;9.192;2023-05-10T14:44:51;17.20;99.90
11540;DHT22;5826;54.756;9.192;2023-05-10T14:47:16;17.20;99.90
11540;DHT22;5826;54.756;9.192;2023-05-10T14:49:42;17.30;99.90
11540;DHT22;5826;54.756;9.192;2023-05-10T14:52:07;17.30;99.90
11540;DHT22;5826;54.756;9.192;2023-05-10T14:54:33;17.30;99.90
11540;DHT22;5826;54.756;9.192;2023-05-10T14:56:59;17.30;99.90
11540;DHT22;5826;54.756;9.192;2023-05-10T14:59:25;17.30;99.90
11540;DHT22;5826;54.756;9.192;2023-05-10T15:01:51;17.30;99.90
11540;DHT22;5826;54.756;9.192;2023-05-10T15:04:16;17.20;99.90
11540;DHT22;5826;54.756;9.192;2023-05-10T15:06:42;17.20;99.90
11540;DHT22;5826;54.756;9.192;2023-05-10T15:09:07;17.10;99.90
11540;DHT22;5826;54.756;9.192;2023-05-10T15:11:34;17.10;99.90
11540;DHT22;5826;54.756;9.192;2023-05-10T15:14:00;17.20;99.90
11540;DHT22;5826;54.756;9.192;2023-05-10T15:16:26;17.10;99.90
11540;DHT22;5826;54.756;9.192;2023-05-10T15:18:51;17.20;99.90
11540;DHT22;5826;54.756;9.192;2023-05-10T15:21:17;17.10;99.90
11540;DHT22;5826;54.756;9.192;2023-05-10T15:23:42;17.10;99.90
11540;DHT22;5826;54.756;9.192;2023-05-10T15:26:08;17.10;99.90
11540;DHT22;5826;54.756;9.192;2023-05-10T15:28:33;17.00;99.90
11540;DHT22;5826;54.756;9.192;2023-05-10T15:30:59;17.00;99.90
11540;DHT22;5826;54.756;9.192;2023-05-10T15:33:25;17.00;99.90
11540;DHT22;5826;54.756;9.192;2023-05-10T15:35:52;16.90;99.90
11540;DHT22;5826;54.756;9.192;2023-05-10T15:38:19;16.90;99.90
11540;DHT22;5826;54.756;9.192;2023-05-10T15:40:44;16.90;99.90
11540;DHT22;5826;54.756;9.192;2023-05-10T15:43:09;16.80;99.90
11540;DHT22;5826;54.756;9.192;2023-05-10T15:45:35;16.80;99.90
11540;DHT22;5826;54.756;9.192;2023-05-10T15:48:00;16.80;99.90
11540;DHT22;5826;54.756;9.192;2023-05-10T15:50:26;16.70;99.90
11540;DHT22;5826;54.756;9.192;2023-05-10T15:52:52;16.70;99.90
11540;DHT22;5826;54.756;9.192;2023-05-10T15:55:18;16.60;99.90
11540;DHT22;5826;54.756;9.192;2023-05-10T15:57:44;16.50;99.90
11540;DHT22;5826;54.756;9.192;2023-05-10T16:00:11;16.50;99.90
11540;DHT22;5826;54.756;9.192;2023-05-10T16:02:37;16.30;99.90